sensor_id;sensor_type;location;lat;lon;timestamp;P1;durP1;ratioP1;P2;durP2;ratioP2
5999;SDS011;3028;49.468;7.694;2022-08-06T00:00:46;3.10;;;1.67;;
5999;SDS011;3028;49.468;7.694;2022-08-06T00:02:50;2.53;;;1.50;;
5999;SDS011;3028;49.468;7.694;2022-08-06T00:04:52;1.40;;;1.30;;
5999;SDS011;3028;49.468;7.694;2022-08-06T00:06:54;1.45;;;1.30;;
5999;SDS011;3028;49.468;7.694;2022-08-06T00:08:55;1.65;;;1.55;;
5999;SDS011;3028;49.468;7.694;2022-08-06T00:10:57;2.42;;;1.40;;
5999;SDS011;3028;49.468;7.694;2022-08-06T00:12:59;1.52;;;1.35;;
5999;SDS011;3028;49.468;7.694;2022-08-06T00:15:05;3.30;;;2.20;;
5999;SDS011;3028;49.468;7.694;2022-08-06T00:17:13;2.55;;;1.73;;
5999;SDS011;3028;49.468;7.694;2022-08-06T00:19:15;1.73;;;1.63;;
5999;SDS011;3028;49.468;7.694;2022-08-06T00:21:18;2.92;;;1.73;;
5999;SDS011;3028;49.468;7.694;2022-08-06T00:23:40;2.10;;;1.75;;
5999;SDS011;3028;49.468;7.694;2022-08-06T00:25:55;2.17;;;1.55;;
5999;SDS011;3028;49.468;7.694;2022-08-06T00:27:57;6.55;;;1.50;;
5999;SDS011;3028;49.468;7.694;2022-08-06T00:29:59;1.50;;;1.40;;
5999;SDS011;3028;49.468;7.694;2022-08-06T00:32:06;2.00;;;1.60;;
5999;SDS011;3028;49.468;7.694;2022-08-06T00:34:12;1.95;;;1.75;;
5999;SDS011;3028;49.468;7.694;2022-08-06T00:36:18;2.85;;;1.75;;
5999;SDS011;3028;49.468;7.694;2022-08-06T00:38:28;1.77;;;1.52;;
5999;SDS011;3028;49.468;7.694;2022-08-06T00:40:30;2.25;;;1.40;;
5999;SDS011;3028;49.468;7.694;2022-08-06T00:42:32;1.52;;;1.40;;
5999;SDS011;3028;49.468;7.694;2022-08-06T00:44:39;2.63;;;1.52;;
5999;SDS011;3028;49.468;7.694;2022-08-06T00:46:41;1.83;;;1.50;;
5999;SDS011;3028;49.468;7.694;2022-08-06T00:48:45;1.75;;;1.50;;
5999;SDS011;3028;49.468;7.694;2022-08-06T00:50:54;1.30;;;1.20;;
5999;SDS011;3028;49.468;7.694;2022-08-06T00:52:56;1.55;;;1.45;;
5999;SDS011;3028;49.468;7.694;2022-08-06T00:54:58;3.50;;;1.50;;
5999;SDS011;3028;49.468;7.694;2022-08-06T00:57:00;1.45;;;1.30;;
5999;SDS011;3028;49.468;7.694;2022-08-06T00:59:03;1.95;;;1.40;;
5999;SDS011;3028;49.468;7.694;2022-08-06T01:01:11;2.28;;;1.45;;
5999;SDS011;3028;49.468;7.694;2022-08-06T01:03:18;2.05;;;1.35;;
5999;SDS011;3028;49.468;7.694;2022-08-06T01:05:40;1.92;;;1.38;;
5999;SDS011;3028;49.468;7.694;2022-08-06T01:08:02;1.33;;;1.27;;
5999;SDS011;3028;49.468;7.694;2022-08-06T01:10:04;1.70;;;1.60;;
5999;SDS011;3028;49.468;7.694;2022-08-06T01:12:07;1.83;;;1.70;;
5999;SDS011;3028;49.468;7.694;2022-08-06T01:14:11;1.70;;;1.48;;
5999;SDS011;3028;49.468;7.694;2022-08-06T01:19:30;1.73;;;1.50;;
5999;SDS011;3028;49.468;7.694;2022-08-06T01:29:44;1.73;;;1.63;;
5999;SDS011;3028;49.468;7.694;2022-08-06T01:31:52;1.95;;;1.60;;
5999;SDS011;3028;49.468;7.694;2022-08-06T01:34:00;1.67;;;1.58;;
5999;SDS011;3028;49.468;7.694;2022-08-06T01:36:39;2.65;;;1.70;;
5999;SDS011;3028;49.468;7.694;2022-08-06T01:38:50;2.22;;;1.27;;
5999;SDS011;3028;49.468;7.694;2022-08-06T01:41:02;2.05;;;1.60;;
5999;SDS011;3028;49.468;7.694;2022-08-06T01:43:06;2.35;;;1.50;;
5999;SDS011;3028;49.468;7.694;2022-08-06T01:45:24;1.67;;;1.58;;
5999;SDS011;3028;49.468;7.694;2022-08-06T01:47:43;1.67;;;1.40;;
5999;SDS011;3028;49.468;7.694;2022-08-06T01:49:55;2.88;;;1.52;;
5999;SDS011;3028;49.468;7.694;2022-08-06T01:52:04;1.95;;;1.63;;
5999;SDS011;3028;49.468;7.694;2022-08-06T01:54:16;3.05;;;1.60;;
5999;SDS011;3028;49.468;7.694;2022-08-06T01:56:20;2.00;;;1.85;;
5999;SDS011;3028;49.468;7.694;2022-08-06T01:58:42;1.67;;;1.58;;
5999;SDS011;3028;49.468;7.694;2022-08-06T02:00:48;1.90;;;1.63;;
5999;SDS011;3028;49.468;7.694;2022-08-06T02:02:52;2.58;;;1.77;;
5999;SDS011;3028;49.468;7.694;2022-08-06T02:04:58;2.38;;;2.10;;
5999;SDS011;3028;49.468;7.694;2022-08-06T02:07:10;1.60;;;1.50;;
5999;SDS011;3028;49.468;7.694;2022-08-06T02:09:15;2.20;;;1.60;;
5999;SDS011;3028;49.468;7.694;2022-08-06T02:11:27;1.92;;;1.60;;
5999;SDS011;3028;49.468;7.694;2022-08-06T02:13:49;4.53;;;1.92;;
5999;SDS011;3028;49.468;7.694;2022-08-06T02:15:52;3.60;;;1.40;;
5999;SDS011;3028;49.468;7.694;2022-08-06T02:18:01;4.05;;;2.05;;
5999;SDS011;3028;49.468;7.694;2022-08-06T02:20:08;1.85;;;1.75;;
5999;SDS011;3028;49.468;7.694;2022-08-06T02:22:12;2.33;;;2.10;;
5999;SDS011;3028;49.468;7.694;2022-08-06T02:24:27;2.67;;;2.05;;
5999;SDS011;3028;49.468;7.694;2022-08-06T02:26:30;3.10;;;1.95;;
5999;SDS011;3028;49.468;7.694;2022-08-06T02:28:34;1.73;;;1.63;;
5999;SDS011;3028;49.468;7.694;2022-08-06T02:30:40;3.28;;;1.60;;
5999;SDS011;3028;49.468;7.694;2022-08-06T02:32:49;3.03;;;1.50;;
5999;SDS011;3028;49.468;7.694;2022-08-06T02:34:51;1.88;;;1.77;;
5999;SDS011;3028;49.468;7.694;2022-08-06T02:37:02;1.98;;;1.45;;
5999;SDS011;3028;49.468;7.694;2022-08-06T02:41:33;7.25;;;2.47;;
5999;SDS011;3028;49.468;7.694;2022-08-06T02:43:59;3.63;;;1.35;;
5999;SDS011;3028;49.468;7.694;2022-08-06T02:46:13;2.13;;;1.60;;
5999;SDS011;3028;49.468;7.694;2022-08-06T02:48:23;1.30;;;1.20;;
5999;SDS011;3028;49.468;7.694;2022-08-06T02:50:34;1.27;;;1.17;;
5999;SDS011;3028;49.468;7.694;2022-08-06T02:52:42;2.92;;;1.35;;
5999;SDS011;3028;49.468;7.694;2022-08-06T02:55:17;1.50;;;1.40;;
5999;SDS011;3028;49.468;7.694;2022-08-06T02:57:25;2.42;;;1.20;;
5999;SDS011;3028;49.468;7.694;2022-08-06T02:59:49;1.48;;;1.38;;
5999;SDS011;3028;49.468;7.694;2022-08-06T03:01:56;2.00;;;1.20;;
5999;SDS011;3028;49.468;7.694;2022-08-06T03:04:05;1.35;;;1.20;;
5999;SDS011;3028;49.468;7.694;2022-08-06T03:06:09;3.75;;;1.30;;
5999;SDS011;3028;49.468;7.694;2022-08-06T03:08:18;2.58;;;1.33;;
5999;SDS011;3028;49.468;7.694;2022-08-06T03:10:26;1.48;;;1.38;;
5999;SDS011;3028;49.468;7.694;2022-08-06T03:12:30;1.73;;;1.45;;
5999;SDS011;3028;49.468;7.694;2022-08-06T03:14:32;3.95;;;1.30;;
5999;SDS011;3028;49.468;7.694;2022-08-06T03:16:55;2.25;;;1.20;;
5999;SDS011;3028;49.468;7.694;2022-08-06T03:18:59;1.58;;;1.20;;
5999;SDS011;3028;49.468;7.694;2022-08-06T03:21:22;2.15;;;1.13;;
5999;SDS011;3028;49.468;7.694;2022-08-06T03:23:24;1.35;;;1.25;;
5999;SDS011;3028;49.468;7.694;2022-08-06T03:25:28;1.77;;;1.33;;
5999;SDS011;3028;49.468;7.694;2022-08-06T03:27:31;1.42;;;1.30;;
5999;SDS011;3028;49.468;7.694;2022-08-06T03:29:45;2.05;;;1.42;;
5999;SDS011;3028;49.468;7.694;2022-08-06T03:31:58;2.22;;;1.42;;
5999;SDS011;3028;49.468;7.694;2022-08-06T03:34:21;2.03;;;1.17;;
5999;SDS011;3028;49.468;7.694;2022-08-06T03:36:23;1.42;;;1.25;;
5999;SDS011;3028;49.468;7.694;2022-08-06T03:38:31;1.80;;;1.30;;
5999;SDS011;3028;49.468;7.694;2022-08-06T03:40:39;1.80;;;1.20;;
5999;SDS011;3028;49.468;7.694;2022-08-06T03:42:44;2.50;;;1.45;;
5999;SDS011;3028;49.468;7.694;2022-08-06T03:44:52;1.85;;;1.20;;
5999;SDS011;3028;49.468;7.694;2022-08-06T03:46:58;1.55;;;1.25;;
5999;SDS011;3028;49.468;7.694;2022-08-06T03:49:11;3.90;;;1.27;;
5999;SDS011;3028;49.468;7.694;2022-08-06T03:51:41;1.10;;;0.93;;
5999;SDS011;3028;49.468;7.694;2022-08-06T03:53:54;1.38;;;1.23;;
5999;SDS011;3028;49.468;7.694;2022-08-06T03:56:00;2.10;;;1.67;;
5999;SDS011;3028;49.468;7.694;2022-08-06T03:58:04;4.85;;;1.60;;
5999;SDS011;3028;49.468;7.694;2022-08-06T04:00:09;1.83;;;1.25;;
5999;SDS011;3028;49.468;7.694;2022-08-06T04:02:12;4.43;;;1.60;;
5999;SDS011;3028;49.468;7.694;2022-08-06T04:04:35;1.85;;;1.75;;
5999;SDS011;3028;49.468;7.694;2022-08-06T04:06:37;1.98;;;1.50;;
5999;SDS011;3028;49.468;7.694;2022-08-06T04:08:43;3.78;;;1.65;;
5999;SDS011;3028;49.468;7.694;2022-08-06T04:10:47;3.63;;;1.95;;
5999;SDS011;3028;49.468;7.694;2022-08-06T04:12:57;1.67;;;1.58;;
5999;SDS011;3028;49.468;7.694;2022-08-06T04:15:20;2.08;;;1.63;;
5999;SDS011;3028;49.468;7.694;2022-08-06T04:17:23;1.40;;;1.30;;
5999;SDS011;3028;49.468;7.694;2022-08-06T04:19:32;1.52;;;1.42;;
5999;SDS011;3028;49.468;7.694;2022-08-06T04:21:38;1.35;;;1.20;;
5999;SDS011;3028;49.468;7.694;2022-08-06T04:24:00;6.72;;;1.85;;
5999;SDS011;3028;49.468;7.694;2022-08-06T04:26:02;1.50;;;1.40;;
5999;SDS011;3028;49.468;7.694;2022-08-06T04:28:15;2.33;;;1.30;;
5999;SDS011;3028;49.468;7.694;2022-08-06T04:30:19;5.85;;;1.33;;
5999;SDS011;3028;49.468;7.694;2022-08-06T04:32:26;1.17;;;1.10;;
5999;SDS011;3028;49.468;7.694;2022-08-06T04:34:32;1.85;;;1.27;;
5999;SDS011;3028;49.468;7.694;2022-08-06T04:36:57;1.48;;;1.05;;
5999;SDS011;3028;49.468;7.694;2022-08-06T04:39:02;2.97;;;1.38;;
5999;SDS011;3028;49.468;7.694;2022-08-06T04:41:09;1.50;;;1.40;;
5999;SDS011;3028;49.468;7.694;2022-08-06T04:43:16;1.38;;;1.27;;
5999;SDS011;3028;49.468;7.694;2022-08-06T04:45:19;1.13;;;1.10;;
5999;SDS011;3028;49.468;7.694;2022-08-06T04:47:42;1.88;;;1.08;;
5999;SDS011;3028;49.468;7.694;2022-08-06T04:49:48;1.13;;;1.00;;
5999;SDS011;3028;49.468;7.694;2022-08-06T04:52:02;2.55;;;1.75;;
5999;SDS011;3028;49.468;7.694;2022-08-06T04:54:24;1.33;;;1.20;;
5999;SDS011;3028;49.468;7.694;2022-08-06T04:56:30;1.58;;;1.17;;
5999;SDS011;3028;49.468;7.694;2022-08-06T04:58:37;1.05;;;0.90;;
5999;SDS011;3028;49.468;7.694;2022-08-06T05:00:41;1.25;;;1.15;;
5999;SDS011;3028;49.468;7.694;2022-08-06T05:03:04;1.52;;;1.15;;
5999;SDS011;3028;49.468;7.694;2022-08-06T05:05:06;2.03;;;0.90;;
5999;SDS011;3028;49.468;7.694;2022-08-06T05:07:14;2.35;;;1.30;;
5999;SDS011;3028;49.468;7.694;2022-08-06T05:09:24;1.33;;;1.10;;
5999;SDS011;3028;49.468;7.694;2022-08-06T05:11:46;1.80;;;1.10;;
5999;SDS011;3028;49.468;7.694;2022-08-06T05:14:01;3.80;;;1.83;;
5999;SDS011;3028;49.468;7.694;2022-08-06T05:16:08;1.08;;;1.08;;
5999;SDS011;3028;49.468;7.694;2022-08-06T05:18:20;4.43;;;1.02;;
5999;SDS011;3028;49.468;7.694;2022-08-06T05:20:47;1.10;;;1.00;;
5999;SDS011;3028;49.468;7.694;2022-08-06T05:22:51;1.40;;;1.30;;
5999;SDS011;3028;49.468;7.694;2022-08-06T05:25:01;0.85;;;0.85;;
5999;SDS011;3028;49.468;7.694;2022-08-06T05:27:19;2.28;;;1.17;;
5999;SDS011;3028;49.468;7.694;2022-08-06T05:29:24;3.05;;;1.13;;
5999;SDS011;3028;49.468;7.694;2022-08-06T05:31:35;3.00;;;0.80;;
5999;SDS011;3028;49.468;7.694;2022-08-06T05:33:40;1.92;;;1.17;;
5999;SDS011;3028;49.468;7.694;2022-08-06T05:35:42;1.65;;;1.20;;
5999;SDS011;3028;49.468;7.694;2022-08-06T05:38:01;1.08;;;0.80;;
5999;SDS011;3028;49.468;7.694;2022-08-06T05:40:06;0.88;;;0.73;;
5999;SDS011;3028;49.468;7.694;2022-08-06T05:42:12;1.10;;;1.00;;
5999;SDS011;3028;49.468;7.694;2022-08-06T05:44:24;2.83;;;1.40;;
5999;SDS011;3028;49.468;7.694;2022-08-06T05:46:33;2.10;;;0.95;;
5999;SDS011;3028;49.468;7.694;2022-08-06T05:53:47;0.93;;;0.80;;
5999;SDS011;3028;49.468;7.694;2022-08-06T05:56:06;1.50;;;0.70;;
5999;SDS011;3028;49.468;7.694;2022-08-06T05:58:33;1.25;;;0.70;;
5999;SDS011;3028;49.468;7.694;2022-08-06T06:00:41;0.98;;;0.90;;
5999;SDS011;3028;49.468;7.694;2022-08-06T06:02:46;2.72;;;1.00;;
5999;SDS011;3028;49.468;7.694;2022-08-06T06:04:50;0.98;;;0.93;;
5999;SDS011;3028;49.468;7.694;2022-08-06T06:07:12;0.70;;;0.70;;
5999;SDS011;3028;49.468;7.694;2022-08-06T06:09:35;3.60;;;1.20;;
5999;SDS011;3028;49.468;7.694;2022-08-06T06:11:57;0.88;;;0.70;;
5999;SDS011;3028;49.468;7.694;2022-08-06T06:14:03;2.58;;;0.75;;
5999;SDS011;3028;49.468;7.694;2022-08-06T06:18:37;1.95;;;0.80;;
5999;SDS011;3028;49.468;7.694;2022-08-06T06:20:58;1.88;;;0.90;;
5999;SDS011;3028;49.468;7.694;2022-08-06T06:23:21;1.10;;;1.00;;
5999;SDS011;3028;49.468;7.694;2022-08-06T06:25:31;2.60;;;0.80;;
5999;SDS011;3028;49.468;7.694;2022-08-06T06:29:49;3.30;;;0.65;;
5999;SDS011;3028;49.468;7.694;2022-08-06T06:41:42;1.20;;;0.60;;
5999;SDS011;3028;49.468;7.694;2022-08-06T06:46:35;2.30;;;0.70;;
5999;SDS011;3028;49.468;7.694;2022-08-06T06:48:49;1.58;;;0.98;;
5999;SDS011;3028;49.468;7.694;2022-08-06T06:50:57;1.30;;;0.45;;
5999;SDS011;3028;49.468;7.694;2022-08-06T06:53:01;1.52;;;0.70;;
5999;SDS011;3028;49.468;7.694;2022-08-06T06:55:18;1.52;;;0.90;;
5999;SDS011;3028;49.468;7.694;2022-08-06T06:57:43;3.83;;;0.60;;
5999;SDS011;3028;49.468;7.694;2022-08-06T06:59:49;1.38;;;0.50;;
5999;SDS011;3028;49.468;7.694;2022-08-06T07:02:18;1.63;;;0.50;;
5999;SDS011;3028;49.468;7.694;2022-08-06T07:04:28;0.57;;;0.50;;
5999;SDS011;3028;49.468;7.694;2022-08-06T07:06:31;1.35;;;1.25;;
5999;SDS011;3028;49.468;7.694;2022-08-06T07:08:46;0.60;;;0.60;;
5999;SDS011;3028;49.468;7.694;2022-08-06T07:10:51;0.75;;;0.52;;
5999;SDS011;3028;49.468;7.694;2022-08-06T07:12:56;1.88;;;0.52;;
5999;SDS011;3028;49.468;7.694;2022-08-06T07:14:58;1.85;;;0.85;;
5999;SDS011;3028;49.468;7.694;2022-08-06T07:17:02;0.90;;;0.65;;
5999;SDS011;3028;49.468;7.694;2022-08-06T07:19:25;2.55;;;0.68;;
5999;SDS011;3028;49.468;7.694;2022-08-06T07:21:27;1.40;;;0.57;;
5999;SDS011;3028;49.468;7.694;2022-08-06T07:23:29;1.88;;;0.63;;
5999;SDS011;3028;49.468;7.694;2022-08-06T07:25:51;0.95;;;0.68;;
5999;SDS011;3028;49.468;7.694;2022-08-06T07:27:55;1.08;;;0.70;;
5999;SDS011;3028;49.468;7.694;2022-08-06T07:30:00;1.67;;;0.80;;
5999;SDS011;3028;49.468;7.694;2022-08-06T07:32:02;2.17;;;0.60;;
5999;SDS011;3028;49.468;7.694;2022-08-06T07:34:05;1.48;;;0.60;;
5999;SDS011;3028;49.468;7.694;2022-08-06T07:36:10;1.35;;;0.60;;
5999;SDS011;3028;49.468;7.694;2022-08-06T07:38:17;1.52;;;0.50;;
5999;SDS011;3028;49.468;7.694;2022-08-06T07:40:31;2.92;;;0.52;;
5999;SDS011;3028;49.468;7.694;2022-08-06T07:42:37;2.08;;;0.80;;
5999;SDS011;3028;49.468;7.694;2022-08-06T07:44:42;2.15;;;0.70;;
5999;SDS011;3028;49.468;7.694;2022-08-06T07:46:57;2.20;;;0.60;;
5999;SDS011;3028;49.468;7.694;2022-08-06T07:49:23;1.08;;;0.50;;
5999;SDS011;3028;49.468;7.694;2022-08-06T07:51:47;0.75;;;0.50;;
5999;SDS011;3028;49.468;7.694;2022-08-06T07:53:52;2.05;;;0.63;;
5999;SDS011;3028;49.468;7.694;2022-08-06T07:56:05;4.15;;;0.80;;
5999;SDS011;3028;49.468;7.694;2022-08-06T07:58:09;1.02;;;0.70;;
5999;SDS011;3028;49.468;7.694;2022-08-06T08:00:13;2.67;;;0.90;;
5999;SDS011;3028;49.468;7.694;2022-08-06T08:02:15;1.63;;;1.02;;
5999;SDS011;3028;49.468;7.694;2022-08-06T08:04:29;0.52;;;0.52;;
5999;SDS011;3028;49.468;7.694;2022-08-06T08:06:54;1.50;;;0.68;;
5999;SDS011;3028;49.468;7.694;2022-08-06T08:08:59;1.48;;;1.00;;
5999;SDS011;3028;49.468;7.694;2022-08-06T08:11:04;5.68;;;0.68;;
5999;SDS011;3028;49.468;7.694;2022-08-06T08:13:08;1.58;;;0.70;;
5999;SDS011;3028;49.468;7.694;2022-08-06T08:15:13;2.25;;;1.30;;
5999;SDS011;3028;49.468;7.694;2022-08-06T08:17:22;2.75;;;1.15;;
5999;SDS011;3028;49.468;7.694;2022-08-06T08:19:35;2.35;;;1.33;;
5999;SDS011;3028;49.468;7.694;2022-08-06T08:21:37;5.63;;;2.05;;
5999;SDS011;3028;49.468;7.694;2022-08-06T08:23:47;3.17;;;1.17;;
5999;SDS011;3028;49.468;7.694;2022-08-06T08:25:56;1.95;;;0.93;;
5999;SDS011;3028;49.468;7.694;2022-08-06T08:27:59;3.13;;;0.93;;
5999;SDS011;3028;49.468;7.694;2022-08-06T08:30:02;1.75;;;1.13;;
5999;SDS011;3028;49.468;7.694;2022-08-06T08:32:05;1.02;;;0.93;;
5999;SDS011;3028;49.468;7.694;2022-08-06T08:34:17;2.20;;;1.38;;
5999;SDS011;3028;49.468;7.694;2022-08-06T08:36:18;3.15;;;1.00;;
5999;SDS011;3028;49.468;7.694;2022-08-06T08:38:31;5.05;;;1.20;;
5999;SDS011;3028;49.468;7.694;2022-08-06T08:40:34;2.35;;;0.95;;
5999;SDS011;3028;49.468;7.694;2022-08-06T08:42:38;2.60;;;0.80;;
5999;SDS011;3028;49.468;7.694;2022-08-06T08:44:41;3.03;;;1.20;;
5999;SDS011;3028;49.468;7.694;2022-08-06T08:46:46;1.45;;;1.05;;
5999;SDS011;3028;49.468;7.694;2022-08-06T08:49:02;3.83;;;1.20;;
5999;SDS011;3028;49.468;7.694;2022-08-06T08:51:07;5.10;;;2.33;;
5999;SDS011;3028;49.468;7.694;2022-08-06T08:53:14;2.95;;;1.50;;
5999;SDS011;3028;49.468;7.694;2022-08-06T08:55:42;9.85;;;0.73;;
5999;SDS011;3028;49.468;7.694;2022-08-06T08:58:04;2.20;;;0.95;;
5999;SDS011;3028;49.468;7.694;2022-08-06T09:00:25;3.03;;;1.23;;
5999;SDS011;3028;49.468;7.694;2022-08-06T09:02:27;1.48;;;0.35;;
5999;SDS011;3028;49.468;7.694;2022-08-06T09:04:31;1.42;;;0.60;;
5999;SDS011;3028;49.468;7.694;2022-08-06T09:06:34;0.68;;;0.60;;
5999;SDS011;3028;49.468;7.694;2022-08-06T09:08:40;1.63;;;0.80;;
5999;SDS011;3028;49.468;7.694;2022-08-06T09:11:02;1.02;;;0.60;;
5999;SDS011;3028;49.468;7.694;2022-08-06T09:13:12;1.80;;;0.85;;
5999;SDS011;3028;49.468;7.694;2022-08-06T09:15:24;2.83;;;1.02;;
5999;SDS011;3028;49.468;7.694;2022-08-06T09:17:27;0.73;;;0.70;;
5999;SDS011;3028;49.468;7.694;2022-08-06T09:19:50;1.50;;;0.60;;
5999;SDS011;3028;49.468;7.694;2022-08-06T09:21:52;3.85;;;0.57;;
5999;SDS011;3028;49.468;7.694;2022-08-06T09:23:54;1.83;;;0.50;;
5999;SDS011;3028;49.468;7.694;2022-08-06T09:25:58;2.72;;;0.57;;
5999;SDS011;3028;49.468;7.694;2022-08-06T09:30:43;0.70;;;0.65;;
5999;SDS011;3028;49.468;7.694;2022-08-06T09:32:59;1.45;;;0.40;;
5999;SDS011;3028;49.468;7.694;2022-08-06T09:35:25;1.65;;;0.50;;
5999;SDS011;3028;49.468;7.694;2022-08-06T09:37:45;1.52;;;0.60;;
5999;SDS011;3028;49.468;7.694;2022-08-06T09:39:54;2.22;;;0.70;;
5999;SDS011;3028;49.468;7.694;2022-08-06T09:42:13;1.20;;;0.63;;
5999;SDS011;3028;49.468;7.694;2022-08-06T09:44:15;1.70;;;0.73;;
5999;SDS011;3028;49.468;7.694;2022-08-06T09:49:00;0.90;;;0.73;;
5999;SDS011;3028;49.468;7.694;2022-08-06T09:51:22;0.82;;;0.70;;
5999;SDS011;3028;49.468;7.694;2022-08-06T09:54:18;1.30;;;0.40;;
5999;SDS011;3028;49.468;7.694;2022-08-06T09:56:26;1.48;;;0.50;;
5999;SDS011;3028;49.468;7.694;2022-08-06T09:58:30;2.05;;;0.40;;
5999;SDS011;3028;49.468;7.694;2022-08-06T10:00:36;11.18;;;0.50;;
5999;SDS011;3028;49.468;7.694;2022-08-06T10:02:38;0.63;;;0.30;;
5999;SDS011;3028;49.468;7.694;2022-08-06T10:04:40;1.02;;;0.68;;
5999;SDS011;3028;49.468;7.694;2022-08-06T10:06:52;0.60;;;0.30;;
5999;SDS011;3028;49.468;7.694;2022-08-06T10:09:11;1.15;;;0.40;;
5999;SDS011;3028;49.468;7.694;2022-08-06T10:11:34;0.63;;;0.40;;
5999;SDS011;3028;49.468;7.694;2022-08-06T10:13:49;2.20;;;0.43;;
5999;SDS011;3028;49.468;7.694;2022-08-06T10:15:56;0.47;;;0.32;;
5999;SDS011;3028;49.468;7.694;2022-08-06T10:18:02;1.05;;;0.60;;
5999;SDS011;3028;49.468;7.694;2022-08-06T10:20:08;0.55;;;0.40;;
5999;SDS011;3028;49.468;7.694;2022-08-06T10:22:19;1.67;;;1.05;;
5999;SDS011;3028;49.468;7.694;2022-08-06T10:24:27;2.50;;;0.75;;
5999;SDS011;3028;49.468;7.694;2022-08-06T10:26:49;0.65;;;0.50;;
5999;SDS011;3028;49.468;7.694;2022-08-06T10:28:51;2.63;;;0.60;;
5999;SDS011;3028;49.468;7.694;2022-08-06T10:30:54;0.35;;;0.35;;
5999;SDS011;3028;49.468;7.694;2022-08-06T10:33:02;1.42;;;0.65;;
5999;SDS011;3028;49.468;7.694;2022-08-06T10:35:20;0.88;;;0.30;;
5999;SDS011;3028;49.468;7.694;2022-08-06T10:37:25;1.85;;;0.50;;
5999;SDS011;3028;49.468;7.694;2022-08-06T10:39:50;0.50;;;0.50;;
5999;SDS011;3028;49.468;7.694;2022-08-06T10:42:11;0.60;;;0.40;;
5999;SDS011;3028;49.468;7.694;2022-08-06T10:44:23;2.03;;;0.52;;
5999;SDS011;3028;49.468;7.694;2022-08-06T10:46:32;1.15;;;0.40;;
5999;SDS011;3028;49.468;7.694;2022-08-06T10:48:35;2.15;;;0.35;;
5999;SDS011;3028;49.468;7.694;2022-08-06T10:50:58;1.58;;;0.40;;
5999;SDS011;3028;49.468;7.694;2022-08-06T10:53:01;1.02;;;0.50;;
5999;SDS011;3028;49.468;7.694;2022-08-06T10:55:04;0.93;;;0.50;;
5999;SDS011;3028;49.468;7.694;2022-08-06T10:57:08;3.15;;;0.65;;
5999;SDS011;3028;49.468;7.694;2022-08-06T10:59:15;1.67;;;0.50;;
5999;SDS011;3028;49.468;7.694;2022-08-06T11:01:24;2.00;;;0.50;;
5999;SDS011;3028;49.468;7.694;2022-08-06T11:05:41;2.08;;;0.60;;
5999;SDS011;3028;49.468;7.694;2022-08-06T11:15:45;0.55;;;0.40;;
5999;SDS011;3028;49.468;7.694;2022-08-06T11:18:02;1.33;;;0.60;;
5999;SDS011;3028;49.468;7.694;2022-08-06T11:22:40;2.65;;;0.40;;
5999;SDS011;3028;49.468;7.694;2022-08-06T11:24:54;3.22;;;0.77;;
5999;SDS011;3028;49.468;7.694;2022-08-06T11:26:57;2.15;;;0.60;;
5999;SDS011;3028;49.468;7.694;2022-08-06T11:29:12;1.90;;;0.70;;
5999;SDS011;3028;49.468;7.694;2022-08-06T11:31:32;0.63;;;0.47;;
5999;SDS011;3028;49.468;7.694;2022-08-06T11:33:58;0.38;;;0.30;;
5999;SDS011;3028;49.468;7.694;2022-08-06T11:36:05;1.30;;;0.38;;
5999;SDS011;3028;49.468;7.694;2022-08-06T11:38:12;8.70;;;1.67;;
5999;SDS011;3028;49.468;7.694;2022-08-06T11:40:27;2.70;;;0.40;;
5999;SDS011;3028;49.468;7.694;2022-08-06T11:42:40;1.77;;;0.50;;
5999;SDS011;3028;49.468;7.694;2022-08-06T11:45:00;2.35;;;0.43;;
5999;SDS011;3028;49.468;7.694;2022-08-06T11:47:23;0.98;;;0.45;;
5999;SDS011;3028;49.468;7.694;2022-08-06T11:49:39;2.15;;;0.68;;
5999;SDS011;3028;49.468;7.694;2022-08-06T11:51:55;2.15;;;0.50;;
5999;SDS011;3028;49.468;7.694;2022-08-06T11:54:10;3.50;;;0.47;;
5999;SDS011;3028;49.468;7.694;2022-08-06T11:56:24;2.55;;;0.73;;
5999;SDS011;3028;49.468;7.694;2022-08-06T11:58:28;1.33;;;0.70;;
5999;SDS011;3028;49.468;7.694;2022-08-06T12:00:30;0.52;;;0.50;;
5999;SDS011;3028;49.468;7.694;2022-08-06T12:04:45;1.10;;;0.40;;
5999;SDS011;3028;49.468;7.694;2022-08-06T12:06:48;1.20;;;0.40;;
5999;SDS011;3028;49.468;7.694;2022-08-06T12:09:06;2.63;;;0.40;;
5999;SDS011;3028;49.468;7.694;2022-08-06T12:11:21;1.08;;;0.52;;
5999;SDS011;3028;49.468;7.694;2022-08-06T12:13:37;0.77;;;0.50;;
5999;SDS011;3028;49.468;7.694;2022-08-06T12:15:58;0.90;;;0.60;;
5999;SDS011;3028;49.468;7.694;2022-08-06T12:18:12;0.50;;;0.40;;
5999;SDS011;3028;49.468;7.694;2022-08-06T12:20:32;1.67;;;0.50;;
5999;SDS011;3028;49.468;7.694;2022-08-06T12:22:47;1.35;;;0.40;;
5999;SDS011;3028;49.468;7.694;2022-08-06T12:24:51;0.57;;;0.30;;
5999;SDS011;3028;49.468;7.694;2022-08-06T12:27:13;1.42;;;0.50;;
5999;SDS011;3028;49.468;7.694;2022-08-06T12:29:15;0.63;;;0.40;;
5999;SDS011;3028;49.468;7.694;2022-08-06T12:31:27;1.58;;;0.40;;
5999;SDS011;3028;49.468;7.694;2022-08-06T12:33:42;2.83;;;0.45;;
5999;SDS011;3028;49.468;7.694;2022-08-06T12:37:56;4.45;;;0.50;;
5999;SDS011;3028;49.468;7.694;2022-08-06T12:39:58;0.40;;;0.30;;
5999;SDS011;3028;49.468;7.694;2022-08-06T12:42:25;1.52;;;0.38;;
5999;SDS011;3028;49.468;7.694;2022-08-06T12:44:48;0.82;;;0.32;;
5999;SDS011;3028;49.468;7.694;2022-08-06T12:47:09;3.08;;;0.50;;
5999;SDS011;3028;49.468;7.694;2022-08-06T12:49:14;1.38;;;0.35;;
5999;SDS011;3028;49.468;7.694;2022-08-06T12:51:17;0.85;;;0.50;;
5999;SDS011;3028;49.468;7.694;2022-08-06T12:53:27;2.60;;;0.73;;
5999;SDS011;3028;49.468;7.694;2022-08-06T12:55:29;0.82;;;0.40;;
5999;SDS011;3028;49.468;7.694;2022-08-06T12:57:43;1.55;;;0.40;;
5999;SDS011;3028;49.468;7.694;2022-08-06T12:59:59;2.15;;;0.30;;
5999;SDS011;3028;49.468;7.694;2022-08-06T13:02:01;1.45;;;0.40;;
5999;SDS011;3028;49.468;7.694;2022-08-06T13:04:12;0.40;;;0.40;;
5999;SDS011;3028;49.468;7.694;2022-08-06T13:06:17;0.30;;;0.30;;
5999;SDS011;3028;49.468;7.694;2022-08-06T13:08:35;1.80;;;0.60;;
5999;SDS011;3028;49.468;7.694;2022-08-06T13:10:51;1.58;;;0.30;;
5999;SDS011;3028;49.468;7.694;2022-08-06T13:12:59;2.97;;;0.38;;
5999;SDS011;3028;49.468;7.694;2022-08-06T13:15:24;3.65;;;1.00;;
5999;SDS011;3028;49.468;7.694;2022-08-06T13:17:42;0.38;;;0.38;;
5999;SDS011;3028;49.468;7.694;2022-08-06T13:20:44;1.75;;;0.30;;
5999;SDS011;3028;49.468;7.694;2022-08-06T13:22:49;0.30;;;0.30;;
5999;SDS011;3028;49.468;7.694;2022-08-06T13:25:11;1.88;;;0.50;;
5999;SDS011;3028;49.468;7.694;2022-08-06T13:27:35;0.70;;;0.50;;
5999;SDS011;3028;49.468;7.694;2022-08-06T13:29:59;2.60;;;0.40;;
5999;SDS011;3028;49.468;7.694;2022-08-06T13:32:25;0.38;;;0.30;;
5999;SDS011;3028;49.468;7.694;2022-08-06T13:34:50;1.65;;;0.30;;
5999;SDS011;3028;49.468;7.694;2022-08-06T13:36:57;3.25;;;0.35;;
5999;SDS011;3028;49.468;7.694;2022-08-06T13:41:26;0.93;;;0.30;;
5999;SDS011;3028;49.468;7.694;2022-08-06T13:46:03;0.82;;;0.32;;
5999;SDS011;3028;49.468;7.694;2022-08-06T13:48:20;0.57;;;0.40;;
5999;SDS011;3028;49.468;7.694;2022-08-06T13:50:23;3.63;;;0.50;;
5999;SDS011;3028;49.468;7.694;2022-08-06T13:52:26;1.13;;;0.22;;
5999;SDS011;3028;49.468;7.694;2022-08-06T13:54:28;0.98;;;0.40;;
5999;SDS011;3028;49.468;7.694;2022-08-06T13:56:32;1.45;;;0.40;;
5999;SDS011;3028;49.468;7.694;2022-08-06T13:58:36;2.50;;;0.30;;
5999;SDS011;3028;49.468;7.694;2022-08-06T14:00:39;0.95;;;0.30;;
5999;SDS011;3028;49.468;7.694;2022-08-06T14:02:42;0.95;;;0.60;;
5999;SDS011;3028;49.468;7.694;2022-08-06T14:04:45;0.95;;;0.35;;
5999;SDS011;3028;49.468;7.694;2022-08-06T14:06:52;3.88;;;0.63;;
5999;SDS011;3028;49.468;7.694;2022-08-06T14:08:58;1.40;;;0.73;;
5999;SDS011;3028;49.468;7.694;2022-08-06T14:11:01;2.22;;;0.40;;
5999;SDS011;3028;49.468;7.694;2022-08-06T14:13:03;0.93;;;0.50;;
5999;SDS011;3028;49.468;7.694;2022-08-06T14:15:20;5.75;;;0.60;;
5999;SDS011;3028;49.468;7.694;2022-08-06T14:17:26;0.40;;;0.30;;
5999;SDS011;3028;49.468;7.694;2022-08-06T14:19:34;0.47;;;0.25;;
5999;SDS011;3028;49.468;7.694;2022-08-06T14:21:56;0.50;;;0.20;;
5999;SDS011;3028;49.468;7.694;2022-08-06T14:23:58;0.68;;;0.20;;
5999;SDS011;3028;49.468;7.694;2022-08-06T14:26:07;0.35;;;0.20;;
5999;SDS011;3028;49.468;7.694;2022-08-06T14:28:13;2.88;;;0.40;;
5999;SDS011;3028;49.468;7.694;2022-08-06T14:30:17;1.10;;;0.30;;
5999;SDS011;3028;49.468;7.694;2022-08-06T14:32:32;2.05;;;0.40;;